Time;durP1;ratioP1;P1;durP2;ratioP2;P2;SDS_P1;SDS_P2;PMS_P1;PMS_P2;Temp;Humidity;BMP_temperature;BMP_pressure;BME280_temperature;BME280_humidity;BME280_pressure;Samples;Min_cycle;Max_cycle;Signal;HPM_P1;HPM_P2
2021/05/16 00:01:39;;;;;;;1999.90;999.90;;;11.10;99.90;;;;;;5073468;28;20190;-66
2021/05/16 00:04:05;;;;;;;1999.90;999.90;;;11.20;99.90;;;;;;5073144;28;20941;-65
2021/05/16 00:06:31;;;;;;;1999.90;999.90;;;11.20;99.90;;;;;;5073208;28;20765;-66
2021/05/16 00:08:56;;;;;;;1999.90;999.90;;;11.20;99.90;;;;;;5073253;28;20548;-65
2021/05/16 00:11:22;;;;;;;1999.90;999.90;;;11.20;99.90;;;;;;5073176;28;20170;-67
2021/05/16 00:13:48;;;;;;;1999.90;999.90;;;11.20;99.90;;;;;;5073131;28;20202;-67
2021/05/16 00:16:14;;;;;;;1999.90;999.90;;;11.20;99.90;;;;;;5072697;28;20198;-67
2021/05/16 00:18:40;;;;;;;1999.90;999.90;;;11.10;99.90;;;;;;5072885;28;20404;-66
2021/05/16 00:21:06;;;;;;;1999.90;999.90;;;11.10;99.90;;;;;;5073106;28;20400;-66
2021/05/16 00:23:32;;;;;;;1999.90;999.90;;;11.00;99.90;;;;;;5072681;28;20772;-69
2021/05/16 00:25:57;;;;;;;1999.90;999.90;;;10.90;99.90;;;;;;5072581;28;20604;-65
2021/05/16 00:28:23;;;;;;;1999.90;999.90;;;10.90;99.90;;;;;;5072862;28;20178;-65
2021/05/16 00:30:49;;;;;;;1999.90;999.90;;;10.90;99.90;;;;;;5072777;28;20174;-66
2021/05/16 00:33:14;;;;;;;1999.90;999.90;;;11.00;99.90;;;;;;5072517;28;20264;-65
2021/05/16 00:35:40;;;;;;;1999.90;999.90;;;10.90;99.90;;;;;;5072327;28;20194;-65
2021/05/16 00:38:06;;;;;;;1999.90;999.90;;;10.90;99.90;;;;;;5072800;28;20550;-68
2021/05/16 00:40:34;;;;;;;1999.90;999.90;;;10.90;99.90;;;;;;5072605;28;20408;-65
2021/05/16 00:43:00;;;;;;;1999.90;999.90;;;10.80;99.90;;;;;;5072201;28;20174;-65
2021/05/16 00:45:27;;;;;;;1999.90;999.90;;;10.80;99.90;;;;;;5072117;28;20427;-67
2021/05/16 00:47:58;;;;;;;1999.90;999.90;;;10.80;99.90;;;;;;5072412;28;20173;-66
2021/05/16 00:50:46;;;;;;;1999.90;999.90;;;10.70;99.90;;;;;;5072447;28;20399;-66
2021/05/16 00:53:12;;;;;;;1999.90;999.90;;;10.70;99.90;;;;;;5072443;28;20488;-66
2021/05/16 00:55:38;;;;;;;1999.90;999.90;;;10.70;99.90;;;;;;5071923;28;20896;-66
2021/05/16 00:58:05;;;;;;;1999.90;999.90;;;10.70;99.90;;;;;;5072274;28;20536;-66
2021/05/16 01:00:39;;;;;;;1999.90;999.90;;;10.70;99.90;;;;;;5072319;28;20166;-66
2021/05/16 01:03:05;;;;;;;1999.90;999.90;;;10.70;99.90;;;;;;5072247;28;20774;-65
2021/05/16 01:05:31;;;;;;;1999.90;999.90;;;10.70;99.90;;;;;;5071863;28;20428;-67
2021/05/16 01:07:57;;;;;;;1999.90;999.90;;;10.70;99.90;;;;;;5072170;28;20227;-67
2021/05/16 01:10:22;;;;;;;1999.90;999.90;;;10.70;99.90;;;;;;5072175;28;20499;-65
2021/05/16 01:12:51;;;;;;;1999.90;999.90;;;10.60;99.90;;;;;;5072132;28;20175;-66
2021/05/16 01:15:19;;;;;;;1999.90;999.90;;;10.60;99.90;;;;;;5071893;28;20572;-65
2021/05/16 01:17:46;;;;;;;1999.90;999.90;;;10.60;99.90;;;;;;5072212;28;20405;-66
2021/05/16 01:20:16;;;;;;;1999.90;999.90;;;10.60;99.90;;;;;;5071985;28;20398;-66
2021/05/16 01:22:42;;;;;;;1999.90;999.90;;;10.60;99.90;;;;;;5071968;28;20408;-67
2021/05/16 01:25:09;;;;;;;1999.90;999.90;;;10.50;99.90;;;;;;5071472;28;20605;-68
2021/05/16 01:27:35;;;;;;;1999.90;999.90;;;10.50;99.90;;;;;;5071882;28;20914;-65
2021/05/16 01:30:03;;;;;;;1999.90;999.90;;;10.50;99.90;;;;;;5071903;28;20496;-65
2021/05/16 01:32:28;;;;;;;1999.90;999.90;;;10.50;99.90;;;;;;5071859;28;20501;-66
2021/05/16 01:34:54;;;;;;;1999.90;999.90;;;10.50;99.90;;;;;;5071526;28;20511;-67
2021/05/16 01:37:20;;;;;;;1999.90;999.90;;;10.50;99.90;;;;;;5071843;28;20193;-65
2021/05/16 01:39:47;;;;;;;1999.90;999.90;;;10.50;99.90;;;;;;5071756;28;20372;-65
2021/05/16 01:42:15;;;;;;;1999.90;999.90;;;10.40;99.90;;;;;;5072031;28;20259;-65
2021/05/16 01:44:40;;;;;;;1999.90;999.90;;;10.50;99.90;;;;;;5071633;28;20420;-66
2021/05/16 01:47:06;;;;;;;1999.90;999.90;;;10.50;99.90;;;;;;5071695;28;20796;-67
2021/05/16 01:49:47;;;;;;;1999.90;999.90;;;10.50;99.90;;;;;;5071729;28;20174;-67
2021/05/16 01:52:13;;;;;;;1999.90;999.90;;;10.50;99.90;;;;;;5071792;28;20942;-66
2021/05/16 01:54:39;;;;;;;1999.90;999.90;;;10.50;99.90;;;;;;5073406;28;20431;-71
2021/05/16 01:57:07;;;;;;;1999.90;999.90;;;10.50;99.90;;;;;;5075506;28;20204;-66
2021/05/16 01:59:33;;;;;;;1999.90;999.90;;;10.40;99.90;;;;;;5075682;28;20397;-68
2021/05/16 02:02:00;;;;;;;1999.90;999.90;;;10.40;99.90;;;;;;5075614;28;20396;-67
2021/05/16 02:04:31;;;;;;;1999.90;999.90;;;10.40;99.90;;;;;;5075526;28;20468;-66
2021/05/16 02:06:59;;;;;;;1999.90;999.90;;;10.40;99.90;;;;;;5075364;28;20412;-66
2021/05/16 02:09:27;;;;;;;1999.90;999.90;;;10.40;99.90;;;;;;5075513;28;20846;-65
2021/05/16 02:11:53;;;;;;;1999.90;999.90;;;10.40;99.90;;;;;;5075504;28;20470;-66
2021/05/16 02:14:30;;;;;;;1999.90;999.90;;;10.40;99.90;;;;;;5075369;28;20433;-67
2021/05/16 02:16:58;;;;;;;1999.90;999.90;;;10.40;99.90;;;;;;5075072;28;20554;-66
2021/05/16 02:19:23;;;;;;;1999.90;999.90;;;10.40;99.90;;;;;;5075278;28;20396;-65
2021/05/16 02:21:50;;;;;;;1999.90;999.90;;;10.40;99.90;;;;;;5075255;28;20762;-66
2021/05/16 02:24:16;;;;;;;1999.90;999.90;;;10.40;99.90;;;;;;5075196;28;20243;-65
2021/05/16 02:26:42;;;;;;;1999.90;999.90;;;10.40;99.90;;;;;;5074846;28;20400;-65
2021/05/16 02:29:08;;;;;;;1999.90;999.90;;;10.40;99.90;;;;;;5075096;28;20400;-68
2021/05/16 02:31:34;;;;;;;1999.90;999.90;;;10.40;99.90;;;;;;5074990;28;20170;-66
2021/05/16 02:34:00;;;;;;;1999.90;999.90;;;10.40;99.90;;;;;;5074957;28;20481;-65
2021/05/16 02:36:26;;;;;;;1999.90;999.90;;;10.40;99.90;;;;;;5074764;28;20546;-66
2021/05/16 02:38:52;;;;;;;1999.90;999.90;;;10.30;99.90;;;;;;5074951;28;20531;-66
2021/05/16 02:41:18;;;;;;;1999.90;999.90;;;10.30;99.90;;;;;;5075017;28;20396;-66
2021/05/16 02:43:44;;;;;;;1999.90;999.90;;;10.30;99.90;;;;;;5074740;28;20431;-66
2021/05/16 02:46:10;;;;;;;1999.90;999.90;;;10.30;99.90;;;;;;5074475;28;20466;-67
2021/05/16 02:48:35;;;;;;;1999.90;999.90;;;10.30;99.90;;;;;;5074704;28;20729;-66
2021/05/16 02:51:01;;;;;;;1999.90;999.90;;;10.30;99.90;;;;;;5074745;28;20416;-66
2021/05/16 02:53:27;;;;;;;1999.90;999.90;;;10.30;99.90;;;;;;5074709;28;20261;-66
2021/05/16 02:55:53;;;;;;;1999.90;999.90;;;10.20;99.90;;;;;;5074392;28;20485;-65
2021/05/16 02:58:18;;;;;;;1999.90;999.90;;;10.20;99.90;;;;;;5074645;28;20215;-65
2021/05/16 03:00:44;;;;;;;1999.90;999.90;;;10.20;99.90;;;;;;5074571;28;20174;-66
2021/05/16 03:03:10;;;;;;;1999.90;999.90;;;10.20;99.90;;;;;;5074534;28;20166;-68
2021/05/16 03:05:35;;;;;;;1999.90;999.90;;;10.20;99.90;;;;;;5073917;28;20217;-65
2021/05/16 03:08:02;;;;;;;1999.90;999.90;;;10.20;99.90;;;;;;5074466;28;20590;-65
2021/05/16 03:10:27;;;;;;;1999.90;999.90;;;10.20;99.90;;;;;;5074430;28;20718;-65
2021/05/16 03:12:53;;;;;;;1999.90;999.90;;;10.10;99.90;;;;;;5074302;28;20455;-65
2021/05/16 03:15:19;;;;;;;1999.90;999.90;;;10.10;99.90;;;;;;5073833;28;20276;-66
2021/05/16 03:17:45;;;;;;;1999.90;999.90;;;10.10;99.90;;;;;;5074222;28;20648;-67
2021/05/16 03:20:11;;;;;;;1999.90;999.90;;;10.10;99.90;;;;;;5074219;28;20443;-65
2021/05/16 03:22:37;;;;;;;1999.90;999.90;;;10.00;99.90;;;;;;5074100;28;20397;-67
2021/05/16 03:25:04;;;;;;;1999.90;999.90;;;9.90;99.90;;;;;;5073679;28;20454;-66
2021/05/16 03:27:30;;;;;;;1999.90;999.90;;;9.90;99.90;;;;;;5074124;28;20506;-65
2021/05/16 03:29:55;;;;;;;1999.90;999.90;;;9.80;99.90;;;;;;5073933;28;20413;-65
2021/05/16 03:32:21;;;;;;;1999.90;999.90;;;9.80;99.90;;;;;;5073940;28;20577;-68
2021/05/16 03:34:47;;;;;;;1999.90;999.90;;;9.80;99.90;;;;;;5073620;28;20262;-68
2021/05/16 03:37:13;;;;;;;1999.90;999.90;;;9.70;99.90;;;;;;5073751;28;20500;-65
2021/05/16 03:39:38;;;;;;;1999.90;999.90;;;9.80;99.90;;;;;;5073997;28;20163;-65
2021/05/16 03:42:04;;;;;;;1999.90;999.90;;;9.70;99.90;;;;;;5073892;28;20184;-65
2021/05/16 03:44:30;;;;;;;1999.90;999.90;;;9.70;99.90;;;;;;5073664;28;20217;-65
2021/05/16 03:46:55;;;;;;;1999.90;999.90;;;9.70;99.90;;;;;;5073358;28;20951;-66
2021/05/16 03:49:21;;;;;;;1999.90;999.90;;;9.60;99.90;;;;;;5073642;28;20227;-65
2021/05/16 03:51:47;;;;;;;1999.90;999.90;;;9.70;99.90;;;;;;5073605;28;20197;-66
2021/05/16 03:54:15;;;;;;;1999.90;999.90;;;9.70;99.90;;;;;;5073522;28;20184;-66
2021/05/16 03:56:41;;;;;;;1999.90;999.90;;;9.70;99.90;;;;;;5073210;28;20200;-65
2021/05/16 03:59:06;;;;;;;1999.90;999.90;;;9.70;99.90;;;;;;5073393;28;20457;-66
2021/05/16 04:01:32;;;;;;;1999.90;999.90;;;9.70;99.90;;;;;;5073328;28;20169;-67
2021/05/16 04:03:58;;;;;;;1999.90;999.90;;;9.70;99.90;;;;;;5073437;28;20323;-66
2021/05/16 04:06:23;;;;;;;1999.90;999.90;;;9.70;99.90;;;;;;5073067;28;20420;-66
2021/05/16 04:08:49;;;;;;;1999.90;999.90;;;9.80;99.90;;;;;;5073292;28;20170;-66
2021/05/16 04:11:15;;;;;;;1999.90;999.90;;;9.80;99.90;;;;;;5073256;28;20181;-66
2021/05/16 04:13:40;;;;;;;1999.90;999.90;;;9.90;99.90;;;;;;5073027;28;20246;-66
2021/05/16 04:16:06;;;;;;;1999.90;999.90;;;10.00;99.90;;;;;;5072584;28;20204;-67
2021/05/16 04:18:32;;;;;;;1999.90;999.90;;;10.00;99.90;;;;;;5072585;28;20765;-66
2021/05/16 04:20:57;;;;;;;1999.90;999.90;;;10.10;99.90;;;;;;5073134;28;20257;-65
2021/05/16 04:23:25;;;;;;;1999.90;999.90;;;10.20;99.90;;;;;;5072834;28;20508;-66
2021/05/16 04:25:52;;;;;;;1999.90;999.90;;;10.30;99.90;;;;;;5072687;28;20201;-66
2021/05/16 04:28:17;;;;;;;1999.90;999.90;;;10.30;99.90;;;;;;5072810;28;20770;-66
2021/05/16 04:30:43;;;;;;;1999.90;999.90;;;10.30;99.90;;;;;;5072891;28;20175;-67
2021/05/16 04:33:08;;;;;;;1999.90;999.90;;;10.40;99.90;;;;;;5072812;28;20173;-67
2021/05/16 04:35:34;;;;;;;1999.90;999.90;;;10.50;99.90;;;;;;5072278;28;20193;-66
2021/05/16 04:38:00;;;;;;;1999.90;999.90;;;10.50;99.90;;;;;;5072820;28;20180;-65
2021/05/16 04:40:26;;;;;;;1999.90;999.90;;;10.50;99.90;;;;;;5072695;28;20246;-67
2021/05/16 04:42:51;;;;;;;1999.90;999.90;;;10.50;99.90;;;;;;5072572;28;20637;-66
2021/05/16 04:45:17;;;;;;;1999.90;999.90;;;10.50;99.90;;;;;;5072176;28;20285;-66
2021/05/16 04:47:43;;;;;;;1999.90;999.90;;;10.50;99.90;;;;;;5072459;28;20785;-68
2021/05/16 04:50:09;;;;;;;1999.90;999.90;;;10.50;99.90;;;;;;5072492;28;20605;-66
2021/05/16 04:52:34;;;;;;;1999.90;999.90;;;10.60;99.90;;;;;;5072542;28;20587;-66
2021/05/16 04:55:00;;;;;;;1999.90;999.90;;;10.60;99.90;;;;;;5072011;28;20421;-66
2021/05/16 04:57:26;;;;;;;1999.90;999.90;;;10.60;99.90;;;;;;5072244;28;20231;-67
2021/05/16 04:59:53;;;;;;;1999.90;999.90;;;10.50;99.90;;;;;;5072447;28;20173;-67
2021/05/16 05:02:19;;;;;;;1999.90;999.90;;;10.50;99.90;;;;;;5072480;28;20176;-66
2021/05/16 05:04:45;;;;;;;1999.90;999.90;;;10.50;99.90;;;;;;5072089;28;20432;-68
2021/05/16 05:07:11;;;;;;;1999.90;999.90;;;10.50;99.90;;;;;;5078192;22;20498;-71
2021/05/16 05:09:38;;;;;;;1999.90;999.90;;;10.60;99.90;;;;;;5032447;28;20923;-70
2021/05/16 05:12:05;;;;;;;1999.90;999.90;;;10.60;99.90;;;;;;5032231;28;20407;-70
2021/05/16 05:14:30;;;;;;;1999.90;999.90;;;10.60;99.90;;;;;;5032223;28;20402;-71
2021/05/16 05:16:56;;;;;;;1999.90;999.90;;;10.60;99.90;;;;;;5032006;28;20830;-70
2021/05/16 05:19:22;;;;;;;1999.90;999.90;;;10.70;99.90;;;;;;5032228;28;20174;-70
2021/05/16 05:21:48;;;;;;;1999.90;999.90;;;10.80;99.90;;;;;;5032137;28;20658;-71
2021/05/16 05:24:13;;;;;;;1999.90;999.90;;;10.80;99.90;;;;;;5032133;28;20322;-71
2021/05/16 05:26:39;;;;;;;1999.90;999.90;;;10.80;99.90;;;;;;5031875;28;20191;-71
2021/05/16 05:29:05;;;;;;;1999.90;999.90;;;10.90;99.90;;;;;;5032052;28;20230;-71
2021/05/16 05:31:31;;;;;;;1999.90;999.90;;;10.90;99.90;;;;;;5032083;28;20167;-71
2021/05/16 05:33:56;;;;;;;1999.90;999.90;;;11.00;99.90;;;;;;5031950;28;20178;-70
2021/05/16 05:36:22;;;;;;;1999.90;999.90;;;11.10;99.90;;;;;;5031544;28;20954;-70
2021/05/16 05:38:48;;;;;;;1999.90;999.90;;;11.20;99.90;;;;;;5031957;28;20179;-71
2021/05/16 05:41:14;;;;;;;1999.90;999.90;;;11.20;99.90;;;;;;5032045;28;20274;-70
2021/05/16 05:43:40;;;;;;;1999.90;999.90;;;11.30;99.90;;;;;;5031915;28;20171;-71
2021/05/16 05:46:06;;;;;;;1999.90;999.90;;;11.30;99.90;;;;;;5031661;28;20434;-71
2021/05/16 05:48:31;;;;;;;1999.90;999.90;;;11.20;99.90;;;;;;5031881;28;20410;-71
2021/05/16 05:50:58;;;;;;;1999.90;999.90;;;11.30;99.90;;;;;;5031826;28;20167;-71
2021/05/16 05:53:24;;;;;;;1999.90;999.90;;;11.30;99.90;;;;;;5031823;28;20163;-71
2021/05/16 05:55:49;;;;;;;1999.90;999.90;;;11.30;99.90;;;;;;5031308;28;20951;-70
2021/05/16 05:58:15;;;;;;;1999.90;999.90;;;11.30;99.90;;;;;;5031819;28;20884;-70
2021/05/16 06:00:40;;;;;;;1999.90;999.90;;;11.30;99.90;;;;;;5031996;28;20708;-71
2021/05/16 06:03:06;;;;;;;1999.90;999.90;;;11.20;99.90;;;;;;5031796;28;20160;-71
2021/05/16 06:05:32;;;;;;;1999.90;999.90;;;11.20;99.90;;;;;;5031432;28;20270;-71
2021/05/16 06:07:58;;;;;;;1999.90;999.90;;;11.10;99.90;;;;;;5031685;28;20179;-71
2021/05/16 06:10:24;;;;;;;1999.90;999.90;;;11.10;99.90;;;;;;5031923;28;20402;-72
2021/05/16 06:12:51;;;;;;;1999.90;999.90;;;11.00;99.90;;;;;;5031555;28;20537;-71
2021/05/16 06:15:17;;;;;;;1999.90;999.90;;;11.10;99.90;;;;;;5030059;28;20437;-70
2021/05/16 06:17:43;;;;;;;1999.90;999.90;;;11.00;99.90;;;;;;5031500;28;20453;-70
2021/05/16 06:20:09;;;;;;;1999.90;999.90;;;11.00;99.90;;;;;;5031531;28;20415;-69
2021/05/16 06:22:35;;;;;;;1999.90;999.90;;;10.90;99.90;;;;;;5032747;28;20175;-70
2021/05/16 06:25:00;;;;;;;1999.90;999.90;;;10.80;99.90;;;;;;5031378;28;20410;-71
2021/05/16 06:27:26;;;;;;;1999.90;999.90;;;10.80;99.90;;;;;;5031761;28;20188;-70
2021/05/16 06:29:52;;;;;;;1999.90;999.90;;;10.90;99.90;;;;;;5031990;28;20172;-70
2021/05/16 06:32:18;;;;;;;1999.90;999.90;;;11.00;99.90;;;;;;5031460;28;20187;-70
2021/05/16 06:34:43;;;;;;;1999.90;999.90;;;10.90;99.90;;;;;;5031734;28;20179;-70
2021/05/16 06:37:09;;;;;;;1999.90;999.90;;;11.00;99.90;;;;;;5031670;28;20461;-70
2021/05/16 06:39:34;;;;;;;1999.90;999.90;;;11.10;99.90;;;;;;5031392;28;20656;-70
2021/05/16 06:42:00;;;;;;;1999.90;999.90;;;11.10;99.90;;;;;;5035258;28;20228;-70
2021/05/16 06:44:26;;;;;;;1999.90;999.90;;;11.20;99.90;;;;;;5035131;28;20593;-70
2021/05/16 06:46:52;;;;;;;1999.90;999.90;;;11.40;99.90;;;;;;5035211;28;20199;-70
2021/05/16 06:49:18;;;;;;;1999.90;999.90;;;11.40;99.90;;;;;;5035585;28;20406;-70
2021/05/16 06:51:44;;;;;;;1999.90;999.90;;;11.50;99.90;;;;;;5035079;28;20417;-70
2021/05/16 06:54:10;;;;;;;1999.90;999.90;;;11.60;99.90;;;;;;5034880;28;20410;-70
2021/05/16 06:56:36;;;;;;;1999.90;999.90;;;11.60;99.90;;;;;;5034492;28;20476;-70
2021/05/16 06:59:04;;;;;;;1999.90;999.90;;;11.70;99.90;;;;;;5034751;28;20165;-70
2021/05/16 07:01:30;;;;;;;1999.90;999.90;;;11.80;99.90;;;;;;5034684;28;20437;-70
2021/05/16 07:03:56;;;;;;;1999.90;999.90;;;11.80;99.90;;;;;;5034763;28;20883;-70
2021/05/16 07:06:21;;;;;;;1999.90;999.90;;;11.90;99.90;;;;;;5034489;28;20446;-70
2021/05/16 07:08:47;;;;;;;1999.90;999.90;;;12.00;99.90;;;;;;5034906;28;20172;-70
2021/05/16 07:11:14;;;;;;;1999.90;999.90;;;12.10;99.90;;;;;;5034453;28;20438;-70
2021/05/16 07:13:40;;;;;;;1999.90;999.90;;;12.20;99.90;;;;;;5034745;28;20403;-70
2021/05/16 07:16:05;;;;;;;1999.90;999.90;;;12.30;99.90;;;;;;5034268;28;20446;-70
2021/05/16 07:18:31;;;;;;;1999.90;999.90;;;12.40;99.90;;;;;;5034379;28;20780;-70
2021/05/16 07:20:57;;;;;;;1999.90;999.90;;;12.50;99.90;;;;;;5034288;28;20165;-70
2021/05/16 07:23:22;;;;;;;1999.90;999.90;;;12.60;99.90;;;;;;5034146;28;20298;-69
2021/05/16 07:25:48;;;;;;;1999.90;999.90;;;12.70;99.90;;;;;;5034275;28;20427;-70
2021/05/16 07:28:14;;;;;;;1999.90;999.90;;;12.70;99.90;;;;;;5034578;28;20169;-70
2021/05/16 07:30:40;;;;;;;1999.90;999.90;;;12.80;99.90;;;;;;5034347;28;20537;-70
2021/05/16 07:33:06;;;;;;;1999.90;999.90;;;12.90;99.90;;;;;;5034086;28;20171;-70
2021/05/16 07:35:32;;;;;;;1999.90;999.90;;;12.90;99.90;;;;;;5032426;28;20439;-69
2021/05/16 07:37:57;;;;;;;1999.90;999.90;;;13.00;99.90;;;;;;5034185;28;20403;-70
2021/05/16 07:40:23;;;;;;;1999.90;999.90;;;13.10;99.90;;;;;;5034152;28;20411;-69
2021/05/16 07:42:52;;;;;;;1999.90;999.90;;;13.10;99.90;;;;;;5034141;28;20866;-70
2021/05/16 07:45:19;;;;;;;1999.90;999.90;;;13.10;99.90;;;;;;5033775;28;20403;-69
2021/05/16 07:47:45;;;;;;;1999.90;999.90;;;13.10;99.90;;;;;;5033914;28;20843;-69
2021/05/16 07:50:12;;;;;;;1999.90;999.90;;;13.00;99.90;;;;;;5033759;28;20490;-70
2021/05/16 07:52:38;;;;;;;1999.90;999.90;;;13.10;99.90;;;;;;5032671;28;20542;-69
2021/05/16 07:55:04;;;;;;;1999.90;999.90;;;13.10;99.90;;;;;;5033415;28;20407;-69
2021/05/16 07:57:30;;;;;;;1999.90;999.90;;;13.10;99.90;;;;;;5032284;28;20455;-69
2021/05/16 07:59:56;;;;;;;1999.90;999.90;;;13.10;99.90;;;;;;5033665;28;20411;-69
2021/05/16 08:02:21;;;;;;;1999.90;999.90;;;13.00;99.90;;;;;;5033596;28;20168;-69
2021/05/16 08:04:47;;;;;;;1999.90;999.90;;;13.00;99.90;;;;;;5033271;28;20306;-69
2021/05/16 08:07:13;;;;;;;1999.90;999.90;;;13.00;99.90;;;;;;5033199;28;20230;-70
2021/05/16 08:09:39;;;;;;;1999.90;999.90;;;13.00;99.90;;;;;;5033415;28;20169;-70
2021/05/16 08:12:05;;;;;;;1999.90;999.90;;;13.10;99.90;;;;;;5033723;28;20172;-70
2021/05/16 08:14:30;;;;;;;1999.90;999.90;;;13.10;99.90;;;;;;5033581;28;20403;-71
2021/05/16 08:16:56;;;;;;;1999.90;999.90;;;13.00;99.90;;;;;;5033042;28;20458;-71
2021/05/16 08:19:22;;;;;;;1999.90;999.90;;;13.00;99.90;;;;;;5033365;28;20169;-70
2021/05/16 08:21:48;;;;;;;1999.90;999.90;;;13.20;99.90;;;;;;5033313;28;20199;-70
2021/05/16 08:24:15;;;;;;;1999.90;999.90;;;13.30;99.90;;;;;;5033224;28;20618;-71
2021/05/16 08:26:41;;;;;;;1999.90;999.90;;;13.50;99.90;;;;;;5033090;28;20428;-70
2021/05/16 08:29:07;;;;;;;1999.90;999.90;;;13.70;99.90;;;;;;5033128;28;20449;-70
2021/05/16 08:31:36;;;;;;;1999.90;999.90;;;13.80;99.90;;;;;;5033184;28;20402;-70
2021/05/16 08:34:04;;;;;;;1999.90;999.90;;;13.90;99.90;;;;;;5033023;28;20522;-70
2021/05/16 08:36:34;;;;;;;1999.90;999.90;;;14.00;99.90;;;;;;5032340;28;20439;-70
2021/05/16 08:39:00;;;;;;;1999.90;999.90;;;13.90;99.90;;;;;;5032839;28;20404;-70
2021/05/16 08:41:25;;;;;;;1999.90;999.90;;;13.60;99.90;;;;;;5032882;28;21251;-70
2021/05/16 08:43:51;;;;;;;1999.90;999.90;;;13.50;99.90;;;;;;5032775;28;20669;-70
2021/05/16 08:46:18;;;;;;;1999.90;999.90;;;13.50;99.90;;;;;;5032371;28;20195;-71
2021/05/16 08:48:43;;;;;;;1999.90;999.90;;;13.50;99.90;;;;;;5027761;28;20439;-70
2021/05/16 08:51:10;;;;;;;1999.90;999.90;;;13.50;99.90;;;;;;5030774;28;20436;-70
2021/05/16 08:53:36;;;;;;;1999.90;999.90;;;13.70;99.90;;;;;;5030827;28;20407;-70
2021/05/16 08:56:06;;;;;;;1999.90;999.90;;;13.90;99.90;;;;;;5030070;28;20447;-70
2021/05/16 08:58:32;;;;;;;1999.90;999.90;;;14.10;99.90;;;;;;5030993;28;20421;-70
2021/05/16 09:00:58;;;;;;;1999.90;999.90;;;14.20;99.90;;;;;;5030926;28;20399;-70
2021/05/16 09:03:24;;;;;;;1999.90;999.90;;;14.30;99.90;;;;;;5030887;28;20234;-70
2021/05/16 09:05:52;;;;;;;1999.90;999.90;;;14.50;99.90;;;;;;5030519;28;20878;-70
2021/05/16 09:08:22;;;;;;;1999.90;999.90;;;14.70;99.90;;;;;;5030794;28;20415;-70
2021/05/16 09:10:57;;;;;;;1999.90;999.90;;;15.00;99.90;;;;;;5030631;28;20845;-70
2021/05/16 09:13:27;;;;;;;1999.90;999.90;;;14.90;99.90;;;;;;5030626;28;20459;-70
2021/05/16 09:16:10;;;;;;;1999.90;999.90;;;14.80;99.90;;;;;;5030280;28;20542;-70
2021/05/16 09:18:43;;;;;;;1999.90;999.90;;;14.70;99.90;;;;;;5030429;28;20410;-69
2021/05/16 09:21:23;;;;;;;1999.90;999.90;;;14.60;99.90;;;;;;5030856;28;20551;-70
2021/05/16 09:23:50;;;;;;;1999.90;999.90;;;14.50;99.90;;;;;;5030048;28;20407;-70
2021/05/16 09:26:15;;;;;;;1999.90;999.90;;;14.40;99.90;;;;;;5030071;28;20436;-70
2021/05/16 09:28:41;;;;;;;1999.90;999.90;;;14.50;99.90;;;;;;5020666;28;21073;-69
2021/05/16 09:31:08;;;;;;;1999.90;999.90;;;14.60;99.90;;;;;;5009172;28;20262;-70
2021/05/16 09:33:34;;;;;;;1999.90;999.90;;;14.70;99.90;;;;;;5010113;28;20168;-70
2021/05/16 09:36:05;;;;;;;1999.90;999.90;;;14.90;99.90;;;;;;5009100;28;20482;-70
2021/05/16 09:38:32;;;;;;;1999.90;999.90;;;15.20;99.90;;;;;;5009242;28;20427;-72
2021/05/16 09:40:58;;;;;;;1999.90;999.90;;;15.40;99.90;;;;;;5009370;28;20415;-70
2021/05/16 09:43:29;;;;;;;1999.90;999.90;;;15.30;99.90;;;;;;5009779;28;20912;-71
2021/05/16 09:46:06;;;;;;;1999.90;999.90;;;15.20;99.90;;;;;;5009036;28;20306;-71
2021/05/16 09:48:44;;;;;;;1999.90;999.90;;;15.30;99.90;;;;;;5010136;28;20408;-71
2021/05/16 09:51:17;;;;;;;1999.90;999.90;;;15.20;99.90;;;;;;5009948;28;20765;-69
2021/05/16 09:53:46;;;;;;;1999.90;999.90;;;15.20;99.90;;;;;;5009779;28;20416;-71
2021/05/16 09:56:39;;;;;;;1999.90;999.90;;;15.10;99.90;;;;;;5009358;28;20454;-69
2021/05/16 09:59:07;;;;;;;1999.90;999.90;;;15.10;99.90;;;;;;5007805;28;20431;-68
2021/05/16 10:01:34;;;;;;;1999.90;999.90;;;15.00;99.90;;;;;;5020095;28;20544;-69
2021/05/16 10:04:02;;;;;;;1999.90;999.90;;;15.10;99.90;;;;;;5029731;28;20488;-70
2021/05/16 10:06:29;;;;;;;1999.90;999.90;;;15.10;99.90;;;;;;5029039;28;20446;-68
2021/05/16 10:08:55;;;;;;;1999.90;999.90;;;15.30;99.90;;;;;;5029545;28;20403;-69
2021/05/16 10:11:29;;;;;;;1999.90;999.90;;;15.50;99.90;;;;;;5030038;28;20419;-68
2021/05/16 10:14:01;;;;;;;1999.90;999.90;;;15.70;99.90;;;;;;5030216;28;20379;-70
2021/05/16 10:16:48;;;;;;;1999.90;999.90;;;16.00;99.90;;;;;;5031756;28;20455;-70
2021/05/16 10:19:17;;;;;;;1999.90;999.90;;;16.30;99.90;;;;;;5033755;28;20399;-72
2021/05/16 10:21:43;;;;;;;1999.90;999.90;;;16.20;99.90;;;;;;5033910;28;20380;-70
2021/05/16 10:24:10;;;;;;;1999.90;999.90;;;16.00;99.90;;;;;;5033161;28;20411;-71
2021/05/16 10:26:36;;;;;;;1999.90;999.90;;;16.30;99.90;;;;;;5032750;28;20489;-71
2021/05/16 10:29:08;;;;;;;1999.90;999.90;;;16.60;99.90;;;;;;5033652;28;20397;-72
2021/05/16 10:31:50;;;;;;;1999.90;999.90;;;16.90;99.90;;;;;;5032963;28;20402;-72
2021/05/16 10:34:28;;;;;;;1999.90;999.90;;;17.00;99.90;;;;;;5033714;28;20738;-71
2021/05/16 10:36:57;;;;;;;1999.90;999.90;;;17.10;99.90;;;;;;5032643;28;20817;-71
2021/05/16 10:39:41;;;;;;;1999.90;999.90;;;17.10;99.90;;;;;;5032974;28;20407;-71
2021/05/16 10:42:15;;;;;;;1999.90;999.90;;;17.20;99.90;;;;;;5033459;28;21029;-71
2021/05/16 10:44:58;;;;;;;1999.90;999.90;;;17.20;99.90;;;;;;5033091;28;20523;-71
2021/05/16 10:50:11;;;;;;;1999.90;999.90;;;17.40;99.90;;;;;;5033027;28;20760;-71
2021/05/16 10:52:38;;;;;;;1999.90;999.90;;;17.50;99.90;;;;;;5032634;28;20407;-71
2021/05/16 10:55:23;;;;;;;1999.90;999.90;;;17.50;99.90;;;;;;5032623;28;20405;-70
2021/05/16 10:57:49;;;;;;;1999.90;999.90;;;17.70;99.90;;;;;;5033093;28;20435;-71
2021/05/16 11:00:21;;;;;;;1999.90;999.90;;;17.90;99.90;;;;;;5032613;28;20401;-71
2021/05/16 11:03:10;;;;;;;1999.90;999.90;;;17.80;99.90;;;;;;5032987;28;20673;-70
2021/05/16 11:05:48;;;;;;;1999.90;999.90;;;17.80;99.90;;;;;;5032236;28;20453;-71
2021/05/16 11:08:17;;;;;;;1999.90;999.90;;;17.80;99.90;;;;;;5032550;28;20409;-71
2021/05/16 11:10:52;;;;;;;1999.90;999.90;;;17.80;99.90;;;;;;5032488;28;20395;-70
2021/05/16 11:13:27;;;;;;;1999.90;999.90;;;17.90;99.90;;;;;;5032994;28;20410;-70
2021/05/16 11:16:06;;;;;;;1999.90;999.90;;;17.80;99.90;;;;;;5031651;28;20453;-70
2021/05/16 11:18:33;;;;;;;1999.90;999.90;;;17.50;99.90;;;;;;5032790;28;20517;-71
2021/05/16 11:21:01;;;;;;;1999.90;999.90;;;17.40;99.90;;;;;;5032687;28;20932;-70
2021/05/16 11:23:32;;;;;;;1999.90;999.90;;;17.20;99.90;;;;;;5032217;28;20415;-71
2021/05/16 11:25:59;;;;;;;1999.90;999.90;;;17.50;99.90;;;;;;5031853;28;20959;-71
2021/05/16 11:28:30;;;;;;;1999.90;999.90;;;17.60;99.90;;;;;;5032619;28;20407;-70
2021/05/16 11:30:56;;;;;;;1999.90;999.90;;;17.60;99.90;;;;;;5031909;28;20963;-72
2021/05/16 11:33:40;;;;;;;1999.90;999.90;;;17.60;99.90;;;;;;5032549;28;20406;-71
2021/05/16 11:36:08;;;;;;;1999.90;999.90;;;17.80;99.90;;;;;;5031738;28;20456;-71
2021/05/16 11:38:36;;;;;;;1999.90;999.90;;;17.90;99.90;;;;;;5032050;28;20434;-71
2021/05/16 11:41:03;;;;;;;1999.90;999.90;;;17.90;99.90;;;;;;5032358;28;20403;-70
2021/05/16 11:43:33;;;;;;;1999.90;999.90;;;17.70;99.90;;;;;;5032043;28;20428;-71
2021/05/16 11:46:00;;;;;;;1999.90;999.90;;;17.70;99.90;;;;;;5031090;28;20423;-70
2021/05/16 11:48:33;;;;;;;1999.90;999.90;;;17.60;99.90;;;;;;5032268;28;20405;-70
2021/05/16 11:51:18;;;;;;;1999.90;999.90;;;17.60;99.90;;;;;;5032052;28;20504;-70
2021/05/16 11:53:52;;;;;;;1999.90;999.90;;;18.00;99.90;;;;;;5031887;28;20501;-70
2021/05/16 11:56:23;;;;;;;1999.90;999.90;;;18.40;99.90;;;;;;5031227;28;20482;-70
2021/05/16 11:58:57;;;;;;;1999.90;999.90;;;18.70;99.90;;;;;;5032111;28;20477;-70
2021/05/16 12:01:24;;;;;;;1999.90;999.90;;;19.10;99.90;;;;;;5031822;28;20881;-72
2021/05/16 12:04:12;;;;;;;1999.90;999.90;;;19.20;99.90;;;;;;5031853;28;20408;-70